Time;durP1;ratioP1;P1;durP2;ratioP2;P2;SDS_P1;SDS_P2;PMS_P1;PMS_P2;Temp;Humidity;BMP_temperature;BMP_pressure;BME280_temperature;BME280_humidity;BME280_pressure;Samples;Min_cycle;Max_cycle;Signal;HPM_P1;HPM_P2
2023/11/30 00:02:03;;;;;;;0.93;0.65;;;;;;;0.71;100.00;100445.63;5039359;28;20517;-76
2023/11/30 00:04:29;;;;;;;1.35;1.25;;;;;;;0.88;100.00;100478.16;5038952;28;20061;-76
2023/11/30 00:06:54;;;;;;;1.90;1.23;;;;;;;0.20;100.00;100358.41;5031018;28;20086;-76
2023/11/30 00:09:20;;;;;;;0.50;0.50;;;;;;;0.18;100.00;100367.75;5029358;28;20052;-80
2023/11/30 00:11:45;;;;;;;0.40;0.40;;;;;;;0.18;100.00;100367.75;5028064;28;20049;-78
2023/11/30 00:14:11;;;;;;;1.13;1.13;;;;;;;0.20;100.00;100385.06;5036613;28;20040;-78
2023/11/30 00:16:37;;;;;;;0.68;0.55;;;;;;;0.53;100.00;100454.38;5053728;28;20049;-77
2023/11/30 00:19:03;;;;;;;0.75;0.75;;;;;;;0.14;100.00;100383.94;5040435;28;20059;-77
2023/11/30 00:21:28;;;;;;;0.30;0.30;;;;;;;0.27;100.00;100504.03;5037884;28;20053;-76
2023/11/30 00:23:54;;;;;;;0.75;0.75;;;;;;;0.63;100.00;100523.66;5025251;28;20040;-77
2023/11/30 00:26:19;;;;;;;0.68;0.68;;;;;;;0.22;100.00;100431.59;5035930;28;20413;-78
2023/11/30 00:28:45;;;;;;;8.30;3.03;;;;;;;0.58;100.00;100514.81;5041520;28;20404;-78
2023/11/30 00:31:10;;;;;;;0.63;0.60;;;;;;;0.40;100.00;100467.59;5039265;28;20057;-77
2023/11/30 00:33:36;;;;;;;1.05;1.05;;;;;;;-0.15;100.00;100391.34;5040218;28;20420;-77
2023/11/30 00:36:02;;;;;;;24.23;18.98;;;;;;;0.22;100.00;100534.78;5036502;28;20099;-77
2023/11/30 00:38:27;;;;;;;2.28;2.17;;;;;;;0.51;100.00;100545.47;5034888;28;20045;-77
2023/11/30 00:40:53;;;;;;;0.30;0.30;;;;;;;-0.19;100.00;100415.22;5023636;28;20456;-76
2023/11/30 00:43:20;;;;;;;0.32;0.32;;;;;;;0.57;100.00;100536.31;5037985;28;20045;-78
2023/11/30 00:45:47;;;;;;;0.52;0.52;;;;;;;0.23;100.00;100526.22;5039608;28;20147;-78
2023/11/30 00:48:27;;;;;;;1.05;1.05;;;;;;;-0.42;100.00;100380.75;5039989;28;20144;-78
2023/11/30 00:51:03;;;;;;;0.60;0.60;;;;;;;-0.05;100.00;100449.34;5031607;28;20053;-79
2023/11/30 00:53:29;;;;;;;1.52;1.42;;;;;;;0.47;100.00;100536.75;5064335;28;20060;-77
2023/11/30 00:55:54;;;;;;;0.40;0.40;;;;;;;0.37;100.00;100529.41;5041836;28;20040;-75
2023/11/30 00:58:20;;;;;;;0.60;0.60;;;;;;;-0.05;100.00;100491.50;5036825;28;20088;-78
2023/11/30 01:00:45;;;;;;;1.95;1.85;;;;;;;0.52;100.00;100560.16;5042039;28;20044;-77
2023/11/30 01:03:10;;;;;;;0.50;0.50;;;;;;;-0.39;100.00;100421.22;5041749;28;20053;-76
2023/11/30 01:05:36;;;;;;;2.25;2.15;;;;;;;0.50;100.00;100585.03;5038054;28;20045;-75
2023/11/30 01:08:01;;;;;;;1.25;0.93;;;;;;;0.30;100.00;100559.22;5040546;28;20033;-75
2023/11/30 01:10:27;;;;;;;0.90;0.90;;;;;;;-0.45;100.00;100475.94;5038493;28;20512;-77
2023/11/30 01:12:52;;;;;;;2.28;2.17;;;;;;;-0.44;100.00;100465.72;5038266;28;20092;-77
2023/11/30 01:15:18;;;;;;;0.47;0.47;;;;;;;0.06;100.00;100538.41;5040982;28;20484;-79
2023/11/30 01:17:43;;;;;;;0.50;0.50;;;;;;;-0.31;100.00;100486.88;5030407;28;20538;-76
2023/11/30 01:20:10;;;;;;;2.40;2.30;;;;;;;0.22;100.00;100555.44;5033829;28;20036;-75
2023/11/30 01:22:36;;;;;;;0.35;0.35;;;;;;;-0.11;100.00;100508.41;5035674;28;20082;-73
2023/11/30 01:25:01;;;;;;;0.50;0.50;;;;;;;-0.20;100.00;100532.06;5040952;28;20446;-74
2023/11/30 01:27:26;;;;;;;1.10;1.10;;;;;;;-0.44;100.00;100495.78;5029980;28;20073;-74
2023/11/30 01:29:52;;;;;;;5.22;5.00;;;;;;;0.18;100.00;100587.94;5033142;28;20037;-75
2023/11/30 01:32:17;;;;;;;2.92;2.83;;;;;;;0.07;100.00;100591.78;5031895;28;20036;-75
2023/11/30 01:34:43;;;;;;;0.55;0.55;;;;;;;-0.14;100.00;100560.72;5039108;28;20029;-74
2023/11/30 01:37:08;;;;;;;7.82;7.13;;;;;;;0.00;100.00;100574.25;5040513;28;20036;-74
2023/11/30 01:39:34;;;;;;;1.30;1.27;;;;;;;-0.38;100.00;100511.50;5038346;28;20068;-75
2023/11/30 01:41:59;;;;;;;0.60;0.60;;;;;;;-0.22;100.00;100560.38;5040190;28;20029;-75
2023/11/30 01:44:25;;;;;;;0.45;0.45;;;;;;;-0.07;100.00;100572.19;5035625;28;20045;-76
2023/11/30 01:46:50;;;;;;;1.27;1.27;;;;;;;-0.34;100.00;100522.84;5045594;28;20021;-75
2023/11/30 01:49:17;;;;;;;1.67;1.60;;;;;;;-0.47;100.00;100532.59;5036821;28;20045;-74
2023/11/30 01:51:43;;;;;;;3.15;3.05;;;;;;;-0.41;100.00;100524.25;5041563;28;20040;-74
2023/11/30 01:54:08;;;;;;;0.82;0.82;;;;;;;0.10;100.00;100625.44;5043025;28;20098;-74
2023/11/30 01:56:39;;;;;;;0.95;0.95;;;;;;;-0.45;100.00;100524.91;5042223;28;20033;-74
2023/11/30 01:59:07;;;;;;;0.70;0.70;;;;;;;0.28;100.00;100648.63;5037005;28;20128;-74
2023/11/30 02:01:34;;;;;;;0.43;0.43;;;;;;;-0.37;100.00;100546.78;5041747;28;20028;-75
2023/11/30 02:04:13;;;;;;;0.38;0.38;;;;;;;0.16;100.00;100623.16;5044718;28;20476;-74
2023/11/30 02:06:39;;;;;;;1.88;1.80;;;;;;;-0.20;100.00;100563.03;5039159;28;20044;-75
2023/11/30 02:09:04;;;;;;;3.13;2.17;;;;;;;0.35;100.00;100662.66;5040159;28;20064;-75
2023/11/30 02:11:31;;;;;;;0.47;0.47;;;;;;;-0.30;100.00;100556.56;5040394;28;20438;-74
2023/11/30 02:13:56;;;;;;;0.38;0.38;;;;;;;-0.27;100.00;100548.09;5045589;28;20051;-74
2023/11/30 02:16:21;;;;;;;0.40;0.40;;;;;;;-0.38;100.00;100552.75;5040138;28;20751;-75
2023/11/30 02:18:47;;;;;;;0.50;0.50;;;;;;;-0.02;100.00;100666.16;5046667;28;20372;-74
2023/11/30 02:21:12;;;;;;;11.88;9.88;;;;;;;0.29;100.00;100664.97;5047498;28;20048;-74
2023/11/30 02:23:38;;;;;;;0.30;0.30;;;;;;;0.51;100.00;100672.84;5048958;28;20041;-73
2023/11/30 02:26:05;;;;;;;0.85;0.85;;;;;;;0.59;100.00;100670.63;5036889;28;20029;-75
2023/11/30 02:28:30;;;;;;;0.40;0.40;;;;;;;-0.26;100.00;100562.72;5049456;28;20051;-74
2023/11/30 02:30:55;;;;;;;0.40;0.40;;;;;;;0.60;100.00;100664.63;5046674;28;20044;-75
2023/11/30 02:33:21;;;;;;;19.65;18.20;;;;;;;-0.10;100.00;100548.84;5038070;28;20091;-75
2023/11/30 02:35:46;;;;;;;10.35;8.07;;;;;;;0.43;100.00;100642.38;5046838;28;20044;-73
2023/11/30 02:38:12;;;;;;;0.40;0.40;;;;;;;-0.02;100.00;100558.69;5040307;28;20029;-74
2023/11/30 02:40:38;;;;;;;0.30;0.30;;;;;;;0.48;100.00;100677.88;5044304;28;20028;-74
2023/11/30 02:43:03;;;;;;;0.30;0.30;;;;;;;0.11;100.00;100665.88;5040920;28;20033;-75
2023/11/30 02:45:28;;;;;;;0.40;0.40;;;;;;;-0.14;100.00;100553.00;5039356;28;20056;-74
2023/11/30 02:47:54;;;;;;;0.40;0.40;;;;;;;0.67;100.00;100670.97;5044312;28;20041;-75
2023/11/30 02:50:19;;;;;;;0.50;0.50;;;;;;;0.00;100.00;100592.31;5038489;28;20060;-74
2023/11/30 02:52:45;;;;;;;12.45;11.70;;;;;;;-0.01;100.00;100600.84;5074116;28;20043;-73
2023/11/30 02:55:10;;;;;;;1.10;1.10;;;;;;;0.76;100.00;100682.56;5045100;28;20037;-75
2023/11/30 02:57:36;;;;;;;16.17;3.03;;;;;;;0.01;100.00;100576.00;5043312;28;20048;-74
2023/11/30 03:00:01;;;;;;;3.10;2.95;;;;;;;-0.09;100.00;100577.28;5036534;28;20083;-74
2023/11/30 03:02:27;;;;;;;0.68;0.68;;;;;;;-0.09;100.00;100595.34;5039827;28;20049;-73
2023/11/30 03:04:52;;;;;;;3.05;2.92;;;;;;;0.80;100.00;100688.78;5041450;28;20487;-75
2023/11/30 03:07:17;;;;;;;1.85;1.67;;;;;;;0.73;100.00;100650.59;5045804;28;20155;-75
2023/11/30 03:09:43;;;;;;;2.92;2.75;;;;;;;-0.30;100.00;100466.34;5041706;28;20049;-73
2023/11/30 03:12:08;;;;;;;0.65;0.65;;;;;;;0.69;100.00;100665.03;5043095;28;20396;-75
2023/11/30 03:14:34;;;;;;;0.80;0.80;;;;;;;0.77;100.00;100689.53;5042313;28;20458;-73
2023/11/30 03:16:59;;;;;;;2.75;2.65;;;;;;;0.37;100.00;100602.53;5038552;28;20045;-73
2023/11/30 03:19:25;;;;;;;0.60;0.60;;;;;;;0.12;100.00;100600.59;5043753;28;20157;-75
2023/11/30 03:21:51;;;;;;;2.50;2.40;;;;;;;0.82;100.00;100695.75;5042778;28;20095;-75
2023/11/30 03:24:18;;;;;;;0.30;0.30;;;;;;;0.24;100.00;100610.59;5037918;28;20052;-74
2023/11/30 03:26:44;;;;;;;0.73;0.73;;;;;;;0.71;100.00;100688.38;5041132;28;20055;-75
2023/11/30 03:29:09;;;;;;;3.13;2.60;;;;;;;0.63;100.00;100673.41;5040461;28;20032;-76
2023/11/30 03:31:35;;;;;;;16.83;15.48;;;;;;;-0.22;100.00;100582.69;5038832;28;20047;-76
2023/11/30 03:34:00;;;;;;;1.27;0.93;;;;;;;0.39;100.00;100626.72;5038504;28;20045;-76
2023/11/30 03:36:26;;;;;;;0.40;0.40;;;;;;;0.54;100.00;100703.09;5045777;28;20044;-75
2023/11/30 03:38:53;;;;;;;0.90;0.90;;;;;;;0.67;100.00;100679.59;5037334;28;20544;-76
2023/11/30 03:41:20;;;;;;;0.50;0.40;;;;;;;0.25;100.00;100606.28;5030208;28;20056;-76
2023/11/30 03:43:46;;;;;;;0.40;0.40;;;;;;;0.61;100.00;100674.16;5041190;28;20034;-76
2023/11/30 03:46:13;;;;;;;0.82;0.82;;;;;;;0.05;100.00;100565.03;5044781;28;20527;-76
2023/11/30 03:48:38;;;;;;;0.40;0.40;;;;;;;0.49;100.00;100679.66;5041600;28;20053;-76
2023/11/30 03:51:04;;;;;;;0.65;0.65;;;;;;;-0.05;100.00;100571.47;5040059;28;20045;-76
2023/11/30 03:53:29;;;;;;;0.30;0.30;;;;;;;0.59;100.00;100687.00;5040491;28;20506;-75
2023/11/30 03:55:59;;;;;;;0.50;0.50;;;;;;;0.24;100.00;100625.19;5036972;28;20064;-75
2023/11/30 03:58:24;;;;;;;0.45;0.45;;;;;;;0.65;100.00;100680.34;5035815;28;20048;-74
2023/11/30 04:00:50;;;;;;;0.75;0.75;;;;;;;0.27;100.00;100685.53;5039827;28;20693;-74
2023/11/30 04:03:15;;;;;;;1.38;1.27;;;;;;;-0.19;100.00;100574.22;5054341;28;20045;-75
2023/11/30 04:05:41;;;;;;;2.50;2.40;;;;;;;-0.35;100.00;100564.88;5035092;28;20040;-75
2023/11/30 04:08:07;;;;;;;1.65;1.55;;;;;;;0.79;100.00;100720.56;5037810;28;20028;-74
2023/11/30 04:10:33;;;;;;;2.05;1.95;;;;;;;-0.46;100.00;100619.41;5039040;28;20114;-75
2023/11/30 04:12:58;;;;;;;1.10;0.82;;;;;;;-0.66;100.00;100617.56;5035809;28;20101;-75
2023/11/30 04:15:24;;;;;;;10.85;7.43;;;;;;;-0.05;100.00;100728.81;5043446;28;20045;-75
2023/11/30 04:17:49;;;;;;;3.50;3.22;;;;;;;-0.55;100.00;100611.22;5028721;28;20095;-74
2023/11/30 04:20:15;;;;;;;6.40;6.03;;;;;;;-0.33;100.00;100618.31;5044305;28;20030;-73
2023/11/30 04:22:40;;;;;;;1.88;1.55;;;;;;;0.56;100.00;100735.03;5057735;28;20551;-74
2023/11/30 04:25:06;;;;;;;0.30;0.30;;;;;;;0.51;100.00;100747.72;5042927;28;20044;-74
2023/11/30 04:27:33;;;;;;;4.18;3.90;;;;;;;-0.13;100.00;100631.25;5042652;28;20120;-73
2023/11/30 04:29:58;;;;;;;0.40;0.40;;;;;;;-0.17;100.00;100642.22;5058884;28;20832;-72
2023/11/30 04:32:24;;;;;;;2.30;2.20;;;;;;;-0.31;100.00;100639.88;5035552;28;20045;-73
2023/11/30 04:34:49;;;;;;;0.30;0.30;;;;;;;-0.39;100.00;100638.63;5046115;28;20029;-75
2023/11/30 04:37:15;;;;;;;0.50;0.50;;;;;;;0.36;100.00;100742.75;5034359;28;20045;-76
2023/11/30 04:39:40;;;;;;;0.70;0.70;;;;;;;-0.40;100.00;100607.63;5055290;28;20088;-75
2023/11/30 04:42:07;;;;;;;8.02;7.53;;;;;;;-0.43;100.00;100632.44;5044354;28;20143;-75
2023/11/30 04:44:32;;;;;;;1.00;1.00;;;;;;;-1.12;100.00;100569.84;5041797;28;20044;-75
2023/11/30 04:46:58;;;;;;;0.65;0.65;;;;;;;0.38;100.00;100748.00;5035229;28;20029;-74
2023/11/30 04:49:23;;;;;;;10.75;5.35;;;;;;;0.10;100.00;100677.03;5042733;28;20060;-76
2023/11/30 04:51:49;;;;;;;0.68;0.68;;;;;;;-0.05;100.00;100650.50;5038279;28;20500;-75
2023/11/30 04:54:15;;;;;;;2.90;2.80;;;;;;;-0.20;100.00;100681.63;5038000;28;20067;-75
2023/11/30 04:56:40;;;;;;;2.47;2.38;;;;;;;-0.47;100.00;100682.09;5038375;28;20048;-75
2023/11/30 04:59:05;;;;;;;0.20;0.20;;;;;;;-0.15;100.00;100770.41;5040872;28;20138;-75
2023/11/30 05:01:31;;;;;;;8.40;7.63;;;;;;;-0.03;100.00;100776.16;5042186;28;20169;-75
2023/11/30 05:03:57;;;;;;;2.30;1.05;;;;;;;-0.63;100.00;100692.47;5039289;28;20090;-75
2023/11/30 05:06:23;;;;;;;14.70;12.60;;;;;;;-0.22;100.00;100783.81;5038040;28;20049;-74
2023/11/30 05:08:48;;;;;;;0.35;0.35;;;;;;;-0.24;100.00;100796.63;5036979;28;20045;-74
2023/11/30 05:11:14;;;;;;;0.30;0.30;;;;;;;-0.09;100.00;100800.78;5036668;28;20752;-75
2023/11/30 05:13:40;;;;;;;3.20;3.10;;;;;;;-0.09;100.00;100809.41;5041254;28;20041;-75
2023/11/30 05:16:06;;;;;;;0.55;0.55;;;;;;;-0.06;100.00;100808.66;5039157;28;20488;-75
2023/11/30 05:18:31;;;;;;;0.45;0.45;;;;;;;-0.74;100.00;100703.91;5035282;28;20045;-75
2023/11/30 05:20:57;;;;;;;1.27;0.82;;;;;;;-0.07;100.00;100809.47;5034646;28;20848;-75
2023/11/30 05:23:24;;;;;;;0.35;0.35;;;;;;;0.06;100.00;100822.16;5038462;28;20116;-75
2023/11/30 05:25:49;;;;;;;0.40;0.40;;;;;;;-0.43;100.00;100750.13;5042248;28;20028;-74
2023/11/30 05:28:15;;;;;;;0.40;0.40;;;;;;;-0.50;100.00;100773.81;5039285;28;20147;-75
2023/11/30 05:30:40;;;;;;;0.22;0.22;;;;;;;-0.49;100.00;100783.34;5039907;28;20059;-75
2023/11/30 05:33:06;;;;;;;0.30;0.30;;;;;;;-0.30;100.00;100829.84;5053504;28;20072;-76
2023/11/30 05:35:33;;;;;;;1.42;1.38;;;;;;;-0.93;100.00;100707.25;5035985;28;20048;-75
2023/11/30 05:37:58;;;;;;;0.43;0.43;;;;;;;-0.17;100.00;100818.44;5041256;28;20036;-75
2023/11/30 05:40:24;;;;;;;1.17;1.17;;;;;;;-0.22;100.00;100828.53;5035230;28;20045;-75
2023/11/30 05:42:50;;;;;;;0.85;0.85;;;;;;;-0.70;100.00;100784.03;5037885;28;20041;-75
2023/11/30 05:45:15;;;;;;;0.43;0.43;;;;;;;-0.98;100.00;100766.25;5041765;28;20525;-75
2023/11/30 05:47:41;;;;;;;0.45;0.45;;;;;;;-1.20;100.00;100712.75;5035066;28;20049;-75
2023/11/30 05:50:07;;;;;;;0.85;0.70;;;;;;;-0.94;100.00;100763.00;5039975;28;20057;-75
2023/11/30 05:52:32;;;;;;;0.40;0.40;;;;;;;-1.31;100.00;100727.66;5043991;28;20064;-75
2023/11/30 05:54:58;;;;;;;11.85;11.23;;;;;;;-1.50;100.00;100750.63;5040331;28;20043;-75
2023/11/30 05:57:23;;;;;;;0.50;0.50;;;;;;;-1.27;100.00;100729.56;5037372;28;20484;-75
2023/11/30 05:59:49;;;;;;;0.30;0.30;;;;;;;-0.83;100.00;100780.72;5056396;28;20049;-75
2023/11/30 06:02:17;;;;;;;0.40;0.40;;;;;;;-1.19;100.00;100748.00;5044002;28;20074;-74
2023/11/30 06:04:53;;;;;;;0.63;0.63;;;;;;;-1.05;100.00;100784.78;5045228;28;20034;-74
2023/11/30 06:07:19;;;;;;;0.88;0.88;;;;;;;-0.50;100.00;100852.03;5038927;28;20051;-76
2023/11/30 06:09:45;;;;;;;4.93;4.72;;;;;;;-0.56;100.00;100814.75;5058406;28;20055;-74
2023/11/30 06:12:11;;;;;;;3.63;3.42;;;;;;;-1.24;100.00;100684.19;5044550;28;20380;-75
2023/11/30 06:14:36;;;;;;;3.50;3.20;;;;;;;-1.16;100.00;100698.34;5038575;28;20384;-76
2023/11/30 06:17:02;;;;;;;0.30;0.30;;;;;;;-0.29;100.00;100879.72;5040851;28;20127;-76
2023/11/30 06:19:28;;;;;;;3.50;3.33;;;;;;;-0.73;100.00;100789.00;5048148;28;20122;-74
2023/11/30 06:21:53;;;;;;;0.35;0.35;;;;;;;-0.65;100.00;100779.09;5040526;28;20053;-73
2023/11/30 06:24:20;;;;;;;0.57;0.57;;;;;;;-0.11;100.00;100872.03;5043277;28;20045;-73
2023/11/30 06:26:45;;;;;;;0.30;0.30;;;;;;;-0.07;100.00;100868.78;5036235;28;20038;-74
2023/11/30 06:29:15;;;;;;;2.05;1.95;;;;;;;-0.62;100.00;100768.06;5038490;28;20503;-75
2023/11/30 06:31:41;;;;;;;0.50;0.50;;;;;;;-0.80;100.00;100749.97;5036812;28;20041;-74
2023/11/30 06:34:07;;;;;;;0.55;0.55;;;;;;;-0.44;100.00;100843.75;5037958;28;20079;-74
2023/11/30 06:36:32;;;;;;;0.20;0.20;;;;;;;-0.43;100.00;100863.53;5070883;28;20123;-74
2023/11/30 06:38:58;;;;;;;0.57;0.57;;;;;;;-0.77;100.00;100771.63;5036063;28;20911;-75
2023/11/30 06:41:23;;;;;;;0.50;0.50;;;;;;;-0.28;100.00;100889.22;5036072;28;20076;-75
2023/11/30 06:43:49;;;;;;;0.50;0.50;;;;;;;-0.63;100.00;100878.00;5045840;28;20778;-74
2023/11/30 06:46:22;;;;;;;1.85;1.75;;;;;;;-1.04;100.00;100868.94;5037390;28;20519;-75
2023/11/30 06:48:52;;;;;;;0.93;0.93;;;;;;;-0.79;100.00;100889.16;5041064;28;20041;-74
2023/11/30 06:51:17;;;;;;;5.40;5.05;;;;;;;-1.04;100.00;100873.22;5034314;28;20778;-75
2023/11/30 06:53:43;;;;;;;2.83;2.65;;;;;;;-1.39;100.00;100812.97;5037676;28;20045;-75
2023/11/30 06:56:12;;;;;;;3.80;3.53;;;;;;;-1.02;100.00;100905.09;5041631;28;20032;-74
2023/11/30 06:58:38;;;;;;;0.32;0.32;;;;;;;-1.43;100.00;100803.31;5035784;28;20029;-75
2023/11/30 07:01:09;;;;;;;1.17;1.17;;;;;;;-0.56;100.00;100925.56;5039342;28;20188;-75
2023/11/30 07:03:35;;;;;;;3.17;3.03;;;;;;;-0.70;100.00;100922.28;5058940;28;20124;-74
2023/11/30 07:06:00;;;;;;;1.67;1.58;;;;;;;-0.42;100.00;100919.47;5041713;28;20487;-74
2023/11/30 07:08:26;;;;;;;0.40;0.40;;;;;;;-1.00;100.00;100810.78;5032108;28;20044;-75
2023/11/30 07:10:52;;;;;;;0.40;0.40;;;;;;;-0.33;100.00;100890.69;5041925;28;20403;-75
2023/11/30 07:13:17;;;;;;;5.13;4.85;;;;;;;-0.31;100.00;100897.69;5038191;28;20855;-75
2023/11/30 07:15:43;;;;;;;1.52;1.45;;;;;;;-0.31;100.00;100897.69;5041107;28;20053;-75
2023/11/30 07:18:09;;;;;;;2.78;2.67;;;;;;;-0.32;100.00;100892.47;5034338;28;20053;-74
2023/11/30 07:20:35;;;;;;;2.05;1.95;;;;;;;-0.19;100.00;100891.38;5034304;28;20125;-77
2023/11/30 07:23:00;;;;;;;0.30;0.30;;;;;;;-0.65;100.00;100821.22;5033395;28;20094;-74
2023/11/30 07:25:26;;;;;;;0.80;0.77;;;;;;;-0.37;100.00;100899.97;5043324;28;20507;-75
2023/11/30 07:27:55;;;;;;;5.05;4.13;;;;;;;-0.09;100.00;100925.47;5034015;28;20050;-74
2023/11/30 07:30:20;;;;;;;1.45;1.40;;;;;;;-0.03;100.00;100918.03;5044955;28;20067;-75
2023/11/30 07:32:45;;;;;;;0.68;0.68;;;;;;;0.22;100.00;100915.81;5038162;28;20049;-75
2023/11/30 07:35:12;;;;;;;0.68;0.68;;;;;;;-0.09;100.00;100808.53;5039360;28;20709;-76
2023/11/30 07:37:37;;;;;;;3.22;3.13;;;;;;;0.45;100.00;100922.13;5039219;28;20498;-74
2023/11/30 07:40:04;;;;;;;0.63;0.63;;;;;;;0.00;100.00;100798.66;5046591;28;20083;-75
2023/11/30 07:42:30;;;;;;;1.48;1.42;;;;;;;0.38;100.00;100882.22;5054563;28;20460;-74
2023/11/30 07:44:56;;;;;;;1.40;1.30;;;;;;;0.35;100.00;100900.09;5042855;28;20053;-75
2023/11/30 07:47:21;;;;;;;0.60;0.60;;;;;;;0.29;100.00;100929.09;5041137;28;20400;-75
2023/11/30 07:49:47;;;;;;;2.30;2.20;;;;;;;0.26;100.00;100905.72;5037179;28;20053;-74
2023/11/30 07:52:13;;;;;;;1.95;1.85;;;;;;;0.18;100.00;100852.84;5038863;28;20055;-74
2023/11/30 07:54:39;;;;;;;0.40;0.40;;;;;;;0.36;100.00;100878.66;5041515;28;20472;-74
2023/11/30 07:57:05;;;;;;;0.68;0.68;;;;;;;0.57;100.00;100918.41;5043815;28;20060;-74
2023/11/30 07:59:31;;;;;;;1.58;1.48;;;;;;;0.18;100.00;100889.84;5042364;28;20048;-74
2023/11/30 08:01:56;;;;;;;4.50;4.30;;;;;;;-0.34;100.00;100789.25;5040658;28;20092;-74
2023/11/30 08:04:21;;;;;;;9.35;8.80;;;;;;;0.56;100.00;100911.50;5038624;28;20073;-74
2023/11/30 08:06:47;;;;;;;2.15;2.05;;;;;;;-0.37;100.00;100763.34;5036711;28;20065;-73
2023/11/30 08:09:13;;;;;;;1.13;1.10;;;;;;;0.35;100.00;100915.59;5040476;28;20138;-74
2023/11/30 08:11:40;;;;;;;5.72;5.40;;;;;;;-0.06;100.00;100783.75;5042662;28;20130;-74
2023/11/30 08:14:06;;;;;;;1.20;1.10;;;;;;;0.82;100.00;100898.94;5043652;28;20029;-74
2023/11/30 08:16:32;;;;;;;2.05;1.95;;;;;;;0.39;100.00;100803.94;5035716;28;20079;-74
2023/11/30 08:18:58;;;;;;;4.53;4.32;;;;;;;1.05;100.00;100899.97;5033593;28;21027;-76
2023/11/30 08:21:23;;;;;;;0.30;0.30;;;;;;;0.95;100.00;100875.44;5032667;28;20190;-74
2023/11/30 08:23:49;;;;;;;0.30;0.30;;;;;;;1.02;100.00;100892.09;5042633;28;20045;-74
2023/11/30 08:26:15;;;;;;;0.60;0.60;;;;;;;0.87;100.00;100906.88;5040429;28;20033;-74
2023/11/30 08:28:43;;;;;;;2.15;2.05;;;;;;;0.40;100.00;100806.59;5012966;28;20899;-74
2023/11/30 08:31:09;;;;;;;10.63;10.15;;;;;;;0.94;100.00;100896.03;5034342;28;20087;-74
2023/11/30 08:33:34;;;;;;;0.88;0.88;;;;;;;0.34;100.00;100782.19;5034153;28;20466;-75
2023/11/30 08:36:00;;;;;;;0.50;0.50;;;;;;;1.06;100.00;100857.84;5034768;28;20045;-77
2023/11/30 08:38:26;;;;;;;5.72;5.47;;;;;;;1.27;100.00;100897.56;5040686;28;20060;-75
2023/11/30 08:40:53;;;;;;;1.35;1.25;;;;;;;1.04;100.00;100811.25;5041832;28;20040;-74
2023/11/30 08:43:18;;;;;;;1.20;1.10;;;;;;;1.43;100.00;100885.34;5039815;28;20095;-74
2023/11/30 08:45:44;;;;;;;5.90;5.47;;;;;;;1.31;100.00;100883.09;5029509;28;20057;-74
2023/11/30 08:48:09;;;;;;;1.40;1.27;;;;;;;1.13;100.00;100835.75;5034685;28;20103;-74
2023/11/30 08:50:35;;;;;;;2.25;2.15;;;;;;;1.34;100.00;100856.50;5033365;28;20183;-75
2023/11/30 08:53:02;;;;;;;0.40;0.40;;;;;;;1.19;100.00;100830.84;5040123;28;20376;-75
2023/11/30 08:55:28;;;;;;;2.35;2.25;;;;;;;1.18;100.00;100821.34;5056215;28;20060;-74
2023/11/30 08:57:54;;;;;;;4.75;4.47;;;;;;;1.05;100.00;100787.19;5059555;28;20075;-75
2023/11/30 09:00:21;;;;;;;0.40;0.40;;;;;;;0.90;100.00;100765.84;5042504;28;20044;-75
2023/11/30 09:02:47;;;;;;;0.40;0.40;;;;;;;1.40;100.00;100772.31;5043178;28;20048;-75
2023/11/30 09:05:12;;;;;;;7.32;2.85;;;;;;;1.46;100.00;100767.41;5037165;28;20403;-75
2023/11/30 09:07:38;;;;;;;0.95;0.95;;;;;;;1.96;100.00;100849.66;5058019;28;20033;-74
2023/11/30 09:10:04;;;;;;;0.32;0.32;;;;;;;1.81;100.00;100813.69;5040714;28;20052;-75
2023/11/30 09:12:30;;;;;;;0.50;0.50;;;;;;;1.61;100.00;100803.38;5032367;28;20041;-74
2023/11/30 09:14:56;;;;;;;0.52;0.52;;;;;;;1.77;100.00;100820.44;5040246;28;20815;-74
2023/11/30 09:17:22;;;;;;;4.40;4.10;;;;;;;1.75;100.00;100704.78;5041739;28;20110;-76
2023/11/30 09:19:47;;;;;;;1.25;1.25;;;;;;;2.01;100.00;100846.44;5039114;28;20459;-74
2023/11/30 09:22:13;;;;;;;0.35;0.35;;;;;;;2.20;100.00;100835.16;5034377;28;20068;-76
2023/11/30 09:24:38;;;;;;;1.13;1.13;;;;;;;2.02;100.00;100827.50;5038616;28;20055;-75
2023/11/30 09:27:04;;;;;;;1.05;1.05;;;;;;;1.83;100.00;100719.78;5034269;28;20057;-76
2023/11/30 09:29:30;;;;;;;24.60;22.05;;;;;;;1.69;100.00;100713.19;5039242;28;20128;-76
2023/11/30 09:31:56;;;;;;;1.00;0.98;;;;;;;2.21;100.00;100820.50;5039837;28;20124;-75
2023/11/30 09:34:21;;;;;;;4.75;4.45;;;;;;;1.99;100.00;100798.03;5036064;28;20140;-79
2023/11/30 09:36:49;;;;;;;0.57;0.57;;;;;;;2.28;100.00;100744.84;5044109;28;20466;-80
2023/11/30 09:39:14;;;;;;;0.40;0.40;;;;;;;2.20;100.00;100691.88;5042860;28;20056;-79
2023/11/30 09:41:40;;;;;;;0.70;0.70;;;;;;;2.36;100.00;100714.94;5048668;28;20053;-79
2023/11/30 09:44:06;;;;;;;6.15;5.53;;;;;;;2.68;100.00;100729.09;5041502;28;20033;-76
2023/11/30 09:46:32;;;;;;;0.70;0.70;;;;;;;3.08;100.00;100823.84;5036146;28;20035;-77
2023/11/30 09:48:59;;;;;;;0.52;0.52;;;;;;;2.57;100.00;100724.34;5036160;28;20057;-76
2023/11/30 09:51:27;;;;;;;0.30;0.30;;;;;;;2.67;100.00;100788.59;5043531;28;20083;-77
2023/11/30 09:53:58;;;;;;;1.63;1.52;;;;;;;2.77;100.00;100802.81;5035262;28;20063;-78
2023/11/30 09:56:27;;;;;;;0.40;0.40;;;;;;;2.71;100.00;100661.81;5031856;28;20052;-76
2023/11/30 09:58:54;;;;;;;0.65;0.65;;;;;;;2.66;100.00;100631.41;5033747;28;20041;-77
2023/11/30 10:01:20;;;;;;;0.75;0.75;;;;;;;3.37;100.00;100748.81;5036851;28;20061;-76
2023/11/30 10:03:46;;;;;;;6.28;5.90;;;;;;;3.71;100.00;100788.88;5033100;28;20056;-75
2023/11/30 10:06:12;;;;;;;3.80;3.60;;;;;;;3.06;100.00;100659.59;5028781;28;20084;-77
2023/11/30 10:08:39;;;;;;;0.40;0.40;;;;;;;3.31;100.00;100699.34;5027992;28;20139;-75
2023/11/30 10:11:07;;;;;;;8.90;8.35;;;;;;;3.79;100.00;100740.69;5033002;28;20145;-75
2023/11/30 10:13:34;;;;;;;2.92;2.72;;;;;;;3.74;100.00;100747.47;5038626;28;20044;-77
2023/11/30 10:16:00;;;;;;;0.30;0.30;;;;;;;3.77;100.00;100712.13;5035685;28;20591;-76
2023/11/30 10:18:27;;;;;;;1.73;1.63;;;;;;;4.12;100.00;100724.44;5046320;28;20052;-75
2023/11/30 10:20:53;;;;;;;2.55;2.38;;;;;;;4.37;100.00;100732.13;5043823;28;20281;-75
2023/11/30 10:23:19;;;;;;;0.50;0.50;;;;;;;3.76;100.00;100678.31;5031644;28;20567;-77
2023/11/30 10:25:46;;;;;;;0.43;0.43;;;;;;;4.01;100.00;100647.09;5035608;28;20037;-77
2023/11/30 10:28:14;;;;;;;2.22;2.13;;;;;;;4.09;100.00;100613.56;5033334;28;20042;-79
2023/11/30 10:30:43;;;;;;;10.98;10.20;;;;;;;4.88;100.00;100732.75;5037047;28;20045;-77
2023/11/30 10:33:13;;;;;;;0.47;0.47;;;;;;;3.94;100.00;100680.63;5050579;28;20254;-77
2023/11/30 10:35:44;;;;;;;1.05;1.05;;;;;;;4.30;100.00;100705.94;5034120;28;20516;-79
2023/11/30 10:38:30;;;;;;;15.95;3.42;;;;;;;4.55;100.00;100711.03;5038381;28;20029;-78
2023/11/30 10:41:02;;;;;;;1.00;1.00;;;;;;;4.01;100.00;100731.91;5044521;28;20029;-77
2023/11/30 10:43:31;;;;;;;13.50;10.23;;;;;;;4.11;100.00;100639.59;5039147;28;20044;-75
2023/11/30 10:45:59;;;;;;;0.30;0.30;;;;;;;4.62;100.00;100650.59;5036154;28;20131;-75
2023/11/30 10:48:28;;;;;;;3.22;2.50;;;;;;;4.43;100.00;100698.56;5069772;28;20506;-77
2023/11/30 10:50:55;;;;;;;3.70;3.45;;;;;;;3.22;100.00;100670.50;5038172;28;20156;-77
2023/11/30 10:53:34;;;;;;;1.50;1.40;;;;;;;3.70;100.00;100680.72;5038450;28;20072;-75
2023/11/30 10:56:00;;;;;;;4.50;3.80;;;;;;;3.79;100.00;100621.31;5043003;28;20028;-77
2023/11/30 10:58:26;;;;;;;2.40;2.20;;;;;;;3.92;100.00;100740.28;5035453;28;20053;-76
2023/11/30 11:00:58;;;;;;;7.72;5.57;;;;;;;3.92;100.00;100703.06;5038416;28;20041;-77
2023/11/30 11:03:27;;;;;;;0.30;0.30;;;;;;;4.33;100.00;100674.84;5037966;28;20049;-78
2023/11/30 11:05:56;;;;;;;2.65;1.85;;;;;;;4.80;100.00;100710.03;5057486;28;20376;-77
2023/11/30 11:08:23;;;;;;;3.92;3.72;;;;;;;4.98;100.00;100722.63;5036188;28;20032;-77
2023/11/30 11:10:50;;;;;;;4.93;4.63;;;;;;;5.08;100.00;100747.19;5043712;28;20047;-77
2023/11/30 11:13:24;;;;;;;1.38;1.27;;;;;;;5.19;100.00;100718.84;5037627;28;20054;-76
2023/11/30 11:16:00;;;;;;;0.88;0.75;;;;;;;4.67;100.00;100626.47;5040730;28;20141;-76
2023/11/30 11:18:31;;;;;;;1.90;1.80;;;;;;;4.24;100.00;100758.59;5037040;28;20056;-76